Time;durP1;ratioP1;P1;durP2;ratioP2;P2;SDS_P1;SDS_P2;PMS_P1;PMS_P2;Temp;Humidity;BMP_temperature;BMP_pressure;BME280_temperature;BME280_humidity;BME280_pressure;Samples;Min_cycle;Max_cycle;Signal;HPM_P1;HPM_P2
2023/07/12 00:01:54;;;;;;;;;;;;;;;19.99;100.00;100732.94;10475045;28;20399;-66
2023/07/12 00:06:57;;;;;;;;;;;;;;;20.08;100.00;100733.84;10459809;28;19925;-65
2023/07/12 00:11:59;;;;;;;;;;;;;;;20.06;100.00;100727.84;10459267;28;20283;-65
2023/07/12 00:17:01;;;;;;;;;;;;;;;19.81;100.00;100746.19;10458924;28;20372;-65
2023/07/12 00:22:03;;;;;;;;;;;;;;;19.66;100.00;100747.66;10458726;28;20402;-65
2023/07/12 00:27:08;;;;;;;;;;;;;;;19.48;100.00;100734.31;10458555;28;19970;-65
2023/07/12 00:32:10;;;;;;;;;;;;;;;19.27;100.00;100737.22;10457304;28;19925;-65
2023/07/12 00:37:13;;;;;;;;;;;;;;;19.56;100.00;100733.59;10458581;28;20007;-65
2023/07/12 00:42:18;;;;;;;;;;;;;;;19.15;100.00;100756.94;10457020;28;19994;-65
2023/07/12 00:47:20;;;;;;;;;;;;;;;19.11;100.00;100765.22;10440154;28;19931;-65
2023/07/12 00:52:23;;;;;;;;;;;;;;;19.02;100.00;100750.16;10457723;28;20295;-64
2023/07/12 00:57:26;;;;;;;;;;;;;;;18.89;100.00;100774.34;10457193;28;19951;-64
2023/07/12 01:02:28;;;;;;;;;;;;;;;19.02;100.00;100781.16;10457640;28;19967;-65
2023/07/12 01:07:31;;;;;;;;;;;;;;;18.69;100.00;100802.69;10456123;28;19924;-65
2023/07/12 01:12:33;;;;;;;;;;;;;;;18.56;100.00;100792.38;10456046;28;20016;-65
2023/07/12 01:17:35;;;;;;;;;;;;;;;18.53;100.00;100803.25;10456941;28;19925;-65
2023/07/12 01:22:38;;;;;;;;;;;;;;;18.67;100.00;100809.09;10455663;28;19990;-65
2023/07/12 01:27:40;;;;;;;;;;;;;;;18.40;100.00;100823.06;10456604;28;20279;-65
2023/07/12 01:32:42;;;;;;;;;;;;;;;18.00;100.00;100832.75;10456521;28;20304;-64
2023/07/12 01:37:45;;;;;;;;;;;;;;;18.26;100.00;100822.47;10455644;28;20338;-64
2023/07/12 01:42:47;;;;;;;;;;;;;;;18.43;100.00;100831.56;10456528;28;20050;-64
2023/07/12 01:47:49;;;;;;;;;;;;;;;18.18;100.00;100795.84;10456623;28;19925;-64
2023/07/12 01:52:52;;;;;;;;;;;;;;;18.20;100.00;100794.69;10456710;28;19979;-64
2023/07/12 01:57:54;;;;;;;;;;;;;;;18.10;100.00;100799.16;10454933;28;20367;-64
2023/07/12 02:02:56;;;;;;;;;;;;;;;18.28;100.00;100803.81;10456280;28;19925;-64
2023/07/12 02:07:59;;;;;;;;;;;;;;;18.48;100.00;100791.41;10456041;28;20019;-65
2023/07/12 02:13:02;;;;;;;;;;;;;;;18.38;100.00;100770.19;10461931;28;20273;-65
2023/07/12 02:18:04;;;;;;;;;;;;;;;18.50;100.00;100765.56;10462495;28;19925;-65
2023/07/12 02:23:07;;;;;;;;;;;;;;;18.34;100.00;100789.97;10462339;28;19928;-64
2023/07/12 02:28:09;;;;;;;;;;;;;;;18.26;100.00;100782.72;10462057;28;20371;-64
2023/07/12 02:33:11;;;;;;;;;;;;;;;18.24;100.00;100779.41;10461869;28;19928;-64
2023/07/12 02:38:14;;;;;;;;;;;;;;;18.16;100.00;100792.50;10462916;28;19925;-64
2023/07/12 02:43:16;;;;;;;;;;;;;;;18.34;100.00;100822.63;10462899;28;19924;-65
2023/07/12 02:48:18;;;;;;;;;;;;;;;18.37;100.00;100827.66;10462510;28;19950;-66
2023/07/12 02:53:21;;;;;;;;;;;;;;;18.12;100.00;100821.06;10462422;28;19932;-65
2023/07/12 02:58:23;;;;;;;;;;;;;;;18.14;100.00;100789.13;10460992;28;19975;-65
2023/07/12 03:03:29;;;;;;;;;;;;;;;17.97;100.00;100766.78;10462127;28;19925;-65
2023/07/12 03:08:32;;;;;;;;;;;;;;;18.10;100.00;100780.59;10461779;28;19929;-65
2023/07/12 03:13:34;;;;;;;;;;;;;;;18.10;100.00;100782.44;10461730;28;19925;-66
2023/07/12 03:18:36;;;;;;;;;;;;;;;18.62;100.00;100785.66;10461560;28;19931;-65
2023/07/12 03:23:38;;;;;;;;;;;;;;;18.31;100.00;100803.53;10461355;28;20440;-65
2023/07/12 03:28:41;;;;;;;;;;;;;;;17.81;100.00;100781.38;10461175;28;19999;-65
2023/07/12 03:33:44;;;;;;;;;;;;;;;17.97;100.00;100809.16;10459697;28;19932;-65
2023/07/12 03:38:47;;;;;;;;;;;;;;;17.89;100.00;100817.81;10460803;28;19931;-64
2023/07/12 03:43:49;;;;;;;;;;;;;;;18.23;100.00;100820.09;10460402;28;20291;-64
2023/07/12 03:48:51;;;;;;;;;;;;;;;17.87;100.00;100830.34;10460776;28;19925;-64
2023/07/12 03:53:53;;;;;;;;;;;;;;;18.06;100.00;100845.44;10458997;28;19924;-64
2023/07/12 03:58:56;;;;;;;;;;;;;;;17.77;100.00;100847.97;10458780;28;19947;-64
2023/07/12 04:03:58;;;;;;;;;;;;;;;17.39;100.00;100858.25;10475152;28;20431;-64
2023/07/12 04:09:02;;;;;;;;;;;;;;;17.52;100.00;100857.22;10459266;28;20047;-64
2023/07/12 04:14:04;;;;;;;;;;;;;;;17.84;100.00;100862.38;10459223;28;20364;-64
2023/07/12 04:19:06;;;;;;;;;;;;;;;17.75;100.00;100863.16;10459079;28;19931;-64
2023/07/12 04:24:08;;;;;;;;;;;;;;;17.83;100.00;100858.84;10458705;28;20306;-64
2023/07/12 04:29:11;;;;;;;;;;;;;;;17.50;100.00;100867.06;10458563;28;20363;-64
2023/07/12 04:34:13;;;;;;;;;;;;;;;17.64;100.00;100866.75;10457793;28;19924;-64
2023/07/12 04:39:21;;;;;;;;;;;;;;;17.63;100.00;100873.00;10458455;28;19971;-64
2023/07/12 04:44:25;;;;;;;;;;;;;;;17.83;100.00;100873.91;10457015;28;19999;-63
2023/07/12 04:49:27;;;;;;;;;;;;;;;17.97;100.00;100873.59;10458366;28;20004;-63
2023/07/12 04:54:30;;;;;;;;;;;;;;;18.04;100.00;100873.03;10457808;28;20368;-63
2023/07/12 04:59:32;;;;;;;;;;;;;;;17.99;100.00;100882.25;10457488;28;19931;-64
2023/07/12 05:04:35;;;;;;;;;;;;;;;17.82;100.00;100882.84;10456600;28;19925;-64
2023/07/12 05:09:37;;;;;;;;;;;;;;;17.64;100.00;100891.41;10457538;28;19924;-64
2023/07/12 05:14:39;;;;;;;;;;;;;;;17.85;100.00;100890.50;10457242;28;20002;-63
2023/07/12 05:19:41;;;;;;;;;;;;;;;17.46;100.00;100892.97;10472470;28;19929;-63
2023/07/12 05:24:44;;;;;;;;;;;;;;;17.43;100.00;100902.03;10455985;28;20008;-63
2023/07/12 05:29:46;;;;;;;;;;;;;;;18.01;100.00;100900.66;10455599;28;20278;-63
2023/07/12 05:34:48;;;;;;;;;;;;;;;17.97;100.00;100908.03;10456730;28;19928;-63
2023/07/12 05:39:51;;;;;;;;;;;;;;;18.09;100.00;100913.22;10456711;28;19932;-63
2023/07/12 05:44:53;;;;;;;;;;;;;;;17.65;100.00;100921.34;10458972;28;19924;-64
2023/07/12 05:49:56;;;;;;;;;;;;;;;18.04;100.00;100915.44;10465113;28;19924;-64
2023/07/12 05:54:59;;;;;;;;;;;;;;;17.62;100.00;100926.94;10464525;28;19929;-64
2023/07/12 06:00:01;;;;;;;;;;;;;;;18.20;100.00;100936.97;10464400;28;19925;-64
2023/07/12 06:05:07;;;;;;;;;;;;;;;18.11;100.00;100927.19;10463050;28;20291;-63
2023/07/12 06:10:09;;;;;;;;;;;;;;;18.66;100.00;100924.09;10462664;28;20364;-64
2023/07/12 06:15:12;;;;;;;;;;;;;;;18.42;100.00;100921.84;10464181;28;19967;-64
2023/07/12 06:20:14;;;;;;;;;;;;;;;18.23;100.00;100949.94;10462590;28;19925;-64
2023/07/12 06:25:16;;;;;;;;;;;;;;;18.48;100.00;100948.63;10463433;28;20001;-64
2023/07/12 06:30:19;;;;;;;;;;;;;;;18.41;100.00;100951.94;10463276;28;19929;-63
2023/07/12 06:35:21;;;;;;;;;;;;;;;18.24;100.00;100961.38;10462966;28;19924;-64
2023/07/12 06:40:23;;;;;;;;;;;;;;;18.66;100.00;100961.22;10463072;28;19925;-64
2023/07/12 06:45:25;;;;;;;;;;;;;;;18.55;100.00;100967.50;10461761;28;19925;-63
2023/07/12 06:50:28;;;;;;;;;;;;;;;18.97;100.00;100971.78;10462521;28;19925;-63
2023/07/12 06:55:30;;;;;;;;;;;;;;;18.87;100.00;100990.34;10461931;28;20371;-64
2023/07/12 07:00:32;;;;;;;;;;;;;;;18.73;100.00;100991.53;10462123;28;19924;-64
2023/07/12 07:05:35;;;;;;;;;;;;;;;18.43;100.00;100985.31;10461916;28;20003;-64
2023/07/12 07:10:38;;;;;;;;;;;;;;;18.67;99.52;100984.94;10461811;28;19964;-63
2023/07/12 07:15:40;;;;;;;;;;;;;;;19.01;100.00;100989.91;10461884;28;20371;-64
2023/07/12 07:20:43;;;;;;;;;;;;;;;18.76;100.00;100993.91;10461462;28;19924;-64
2023/07/12 07:25:47;;;;;;;;;;;;;;;19.05;100.00;100998.47;10475055;23;19955;-62
2023/07/12 07:30:54;;;;;;;;;;;;;;;19.13;99.33;101006.53;10461162;28;19932;-63
2023/07/12 07:35:56;;;;;;;;;;;;;;;19.57;95.67;101016.75;10460688;28;19925;-63
2023/07/12 07:40:58;;;;;;;;;;;;;;;19.63;91.91;101019.66;10443027;28;20290;-63
2023/07/12 07:46:01;;;;;;;;;;;;;;;20.07;94.12;101032.47;10460443;28;19931;-64
2023/07/12 07:51:03;;;;;;;;;;;;;;;19.68;95.50;101027.22;10460250;28;20334;-63
2023/07/12 07:56:08;;;;;;;;;;;;;;;19.51;93.58;101027.94;10459902;28;19959;-64
2023/07/12 08:01:10;;;;;;;;;;;;;;;20.41;86.43;101029.31;10459859;28;19924;-67
2023/07/12 08:06:12;;;;;;;;;;;;;;;19.50;93.84;101029.75;10458994;28;19970;-62
2023/07/12 08:11:15;;;;;;;;;;;;;;;19.77;89.93;101033.53;10459627;28;19964;-61
2023/07/12 08:16:17;;;;;;;;;;;;;;;19.93;91.68;101041.75;10459264;28;19928;-61
2023/07/12 08:21:20;;;;;;;;;;;;;;;20.18;85.46;101048.25;10458829;28;19971;-62
2023/07/12 08:26:22;;;;;;;;;;;;;;;19.56;88.88;101042.47;10458666;28;20371;-62
2023/07/12 08:31:24;;;;;;;;;;;;;;;20.23;86.45;101050.50;10458742;28;20283;-62
2023/07/12 08:36:27;;;;;;;;;;;;;;;20.56;80.61;101046.44;10458842;28;20019;-62
2023/07/12 08:41:29;;;;;;;;;;;;;;;21.27;79.51;101042.25;10458397;28;19931;-61
2023/07/12 08:46:33;;;;;;;;;;;;;;;21.37;76.11;101046.66;10458177;28;19925;-61
2023/07/12 08:51:39;;;;;;;;;;;;;;;22.39;71.10;101047.91;10440764;28;19929;-62
2023/07/12 08:56:43;;;;;;;;;;;;;;;21.78;72.66;101049.69;10457726;28;19924;-62
2023/07/12 09:01:46;;;;;;;;;;;;;;;23.55;69.40;101036.53;10423513;28;20397;-62
2023/07/12 09:06:56;;;;;;;;;;;;;;;21.71;71.37;101055.63;10457418;28;19964;-62
2023/07/12 09:12:00;;;;;;;;;;;;;;;21.97;74.84;101049.50;10457456;28;19929;-61
2023/07/12 09:17:21;;;;;;;;;;;;;;;22.10;72.24;101051.72;10456937;28;19924;-61
2023/07/12 09:22:23;;;;;;;;;;;;;;;22.56;70.92;101049.69;10439384;28;19931;-62
2023/07/12 09:27:26;;;;;;;;;;;;;;;24.00;66.56;101042.38;10457055;28;19925;-62
2023/07/12 09:32:31;;;;;;;;;;;;;;;22.65;67.79;101047.88;10439076;28;20336;-61
2023/07/12 09:37:35;;;;;;;;;;;;;;;23.41;65.53;101034.53;10456546;28;19991;-62
2023/07/12 09:42:37;;;;;;;;;;;;;;;24.50;64.87;101029.69;10457152;28;19925;-62
2023/07/12 09:47:58;;;;;;;;;;;;;;;23.40;63.49;101041.69;10456827;28;20303;-61
2023/07/12 09:53:00;;;;;;;;;;;;;;;23.67;65.22;101042.38;10456438;28;19928;-61
2023/07/12 09:58:09;;;;;;;;;;;;;;;22.91;66.66;101031.75;10456508;28;19925;-61
2023/07/12 10:03:13;;;;;;;;;;;;;;;22.40;65.87;101039.75;10438670;28;19925;-62
2023/07/12 10:08:16;;;;;;;;;;;;;;;24.73;60.94;101043.16;10456129;28;20003;-61
2023/07/12 10:13:38;;;;;;;;;;;;;;;25.98;60.50;101040.25;10438661;28;19928;-62
2023/07/12 10:18:40;;;;;;;;;;;;;;;24.65;59.19;101049.38;10455693;28;19986;-61
2023/07/12 10:23:43;;;;;;;;;;;;;;;23.56;59.72;101044.38;10438342;28;19971;-62
2023/07/12 10:28:55;;;;;;;;;;;;;;;23.54;62.32;101045.56;10437960;28;19925;-62
2023/07/12 10:34:16;;;;;;;;;;;;;;;24.35;60.61;101048.31;10462705;28;19935;-62
2023/07/12 10:39:18;;;;;;;;;;;;;;;25.84;56.47;101035.66;10463047;28;19998;-62
2023/07/12 10:44:22;;;;;;;;;;;;;;;25.67;57.90;101041.19;10463112;28;19931;-62
2023/07/12 10:49:40;;;;;;;;;;;;;;;23.50;61.92;101052.22;10445518;28;19931;-62
2023/07/12 10:55:04;;;;;;;;;;;;;;;27.01;56.64;101045.69;10462453;28;19936;-62
2023/07/12 11:00:19;;;;;;;;;;;;;;;25.61;58.09;101043.75;10462158;28;20383;-62
2023/07/12 11:05:36;;;;;;;;;;;;;;;25.47;56.56;101046.22;10462317;28;19925;-62
2023/07/12 11:10:39;;;;;;;;;;;;;;;26.18;54.38;101047.75;10461805;28;19929;-62
2023/07/12 11:15:52;;;;;;;;;;;;;;;28.13;53.77;101052.28;10444308;28;19925;-62
2023/07/12 11:21:04;;;;;;;;;;;;;;;26.53;54.60;101048.84;10461341;28;20394;-62
2023/07/12 11:26:29;;;;;;;;;;;;;;;24.66;55.50;101056.38;10461500;28;20340;-62
2023/07/12 11:31:32;;;;;;;;;;;;;;;26.63;53.16;101041.34;10443992;28;19925;-62
2023/07/12 11:36:34;;;;;;;;;;;;;;;26.84;51.10;101031.66;10460806;28;20327;-62
2023/07/12 11:41:37;;;;;;;;;;;;;;;25.46;54.83;101041.88;10441985;28;19931;-62
2023/07/12 11:46:39;;;;;;;;;;;;;;;24.42;56.18;101060.81;10460594;28;19928;-62
2023/07/12 11:51:42;;;;;;;;;;;;;;;24.46;59.54;101066.66;10442829;28;20050;-62
2023/07/12 11:56:45;;;;;;;;;;;;;;;24.01;60.35;101076.16;10442215;28;20367;-61
2023/07/12 12:01:48;;;;;;;;;;;;;;;22.44;64.97;101070.47;10460273;28;19925;-63
2023/07/12 12:06:52;;;;;;;;;;;;;;;24.87;60.03;101077.22;10459600;28;19925;-62
2023/07/12 12:11:55;;;;;;;;;;;;;;;23.52;62.68;101079.66;10442178;28;19963;-63
2023/07/12 12:16:57;;;;;;;;;;;;;;;23.74;63.38;101092.34;10441610;28;20367;-63
2023/07/12 12:22:01;;;;;;;;;;;;;;;23.42;62.19;101086.97;10441330;28;20024;-63
2023/07/12 12:27:14;;;;;;;;;;;;;;;25.39;59.28;101084.63;10458781;28;19925;-63
2023/07/12 12:32:21;;;;;;;;;;;;;;;26.71;52.62;101075.31;10442223;28;20015;-64
2023/07/12 12:37:26;;;;;;;;;;;;;;;26.94;53.43;101074.34;10458335;28;20410;-64
2023/07/12 12:42:28;;;;;;;;;;;;;;;27.26;51.64;101075.72;10457018;28;19932;-64
2023/07/12 12:47:32;;;;;;;;;;;;;;;28.11;49.29;101068.63;10440322;28;19931;-64
2023/07/12 12:52:35;;;;;;;;;;;;;;;27.96;49.84;101068.72;10439857;28;19924;-64
2023/07/12 12:57:57;;;;;;;;;;;;;;;28.57;48.21;101064.53;10457526;28;19928;-64
2023/07/12 13:03:05;;;;;;;;;;;;;;;29.00;47.96;101064.28;10457386;28;19925;-64
2023/07/12 13:08:27;;;;;;;;;;;;;;;25.82;50.98;101078.75;10457859;28;19925;-64
2023/07/12 13:13:33;;;;;;;;;;;;;;;27.30;51.90;101065.44;10457304;28;19931;-64
2023/07/12 13:18:38;;;;;;;;;;;;;;;27.87;48.34;101061.78;10440147;28;19924;-63
2023/07/12 13:23:43;;;;;;;;;;;;;;;26.79;52.65;101071.69;10456812;28;20347;-63
2023/07/12 13:28:46;;;;;;;;;;;;;;;25.27;53.92;101072.66;10439486;28;19925;-64
2023/07/12 13:33:48;;;;;;;;;;;;;;;27.58;48.78;101068.19;10439203;28;19924;-63
2023/07/12 13:38:55;;;;;;;;;;;;;;;28.12;48.46;101075.66;10456589;28;19925;-63
2023/07/12 13:44:00;;;;;;;;;;;;;;;28.42;47.14;101075.41;10439696;28;19932;-64
2023/07/12 13:49:06;;;;;;;;;;;;;;;26.92;46.68;101081.78;10456894;28;19931;-64
2023/07/12 13:54:08;;;;;;;;;;;;;;;25.33;51.92;101081.81;10456570;28;19971;-63
2023/07/12 13:59:11;;;;;;;;;;;;;;;26.56;50.94;101091.41;10456326;28;19982;-63
2023/07/12 14:04:18;;;;;;;;;;;;;;;25.17;53.22;101105.00;10456146;28;19925;-64
2023/07/12 14:09:24;;;;;;;;;;;;;;;24.55;51.86;101104.97;10464338;28;20287;-64
2023/07/12 14:14:26;;;;;;;;;;;;;;;25.56;52.63;101100.59;10464590;28;19964;-64
2023/07/12 14:19:28;;;;;;;;;;;;;;;27.31;49.22;101102.88;10463849;28;19925;-64
2023/07/12 14:24:33;;;;;;;;;;;;;;;24.65;51.51;101106.44;10463734;28;19932;-64
2023/07/12 14:29:35;;;;;;;;;;;;;;;24.39;53.13;101106.63;10463193;28;19931;-64
2023/07/12 14:34:40;;;;;;;;;;;;;;;24.24;54.27;101117.22;10463129;28;19929;-64
2023/07/12 14:39:43;;;;;;;;;;;;;;;24.10;56.44;101120.59;10463055;28;20336;-63
2023/07/12 14:44:45;;;;;;;;;;;;;;;26.97;49.82;101111.59;10445091;28;20283;-64
2023/07/12 14:49:49;;;;;;;;;;;;;;;25.28;48.95;101105.66;10445307;28;19925;-63
2023/07/12 14:54:52;;;;;;;;;;;;;;;24.79;53.41;101117.41;10462535;28;19931;-63
2023/07/12 14:59:59;;;;;;;;;;;;;;;25.23;53.19;101116.84;10462175;28;20292;-63
2023/07/12 15:05:04;;;;;;;;;;;;;;;25.68;52.15;101123.28;10461379;28;20218;-63
2023/07/12 15:10:07;;;;;;;;;;;;;;;25.00;52.05;101114.97;10461949;28;20322;-63
2023/07/12 15:15:18;;;;;;;;;;;;;;;24.64;53.30;101125.34;10461778;28;20023;-63
2023/07/12 15:20:21;;;;;;;;;;;;;;;23.83;55.76;101122.59;10443767;28;20383;-63
2023/07/12 15:25:27;;;;;;;;;;;;;;;23.23;56.87;101134.34;10461258;28;19971;-63
2023/07/12 15:30:29;;;;;;;;;;;;;;;23.06;58.12;101145.94;10461008;28;19925;-64
2023/07/12 15:35:33;;;;;;;;;;;;;;;22.19;60.88;101148.63;10443208;28;19933;-63
2023/07/12 15:40:47;;;;;;;;;;;;;;;22.13;60.47;101139.41;10443532;28;20007;-64
2023/07/12 15:45:49;;;;;;;;;;;;;;;22.74;57.50;101137.63;10460518;28;19964;-64
2023/07/12 15:50:53;;;;;;;;;;;;;;;23.27;57.74;101132.22;10460538;28;19925;-64
2023/07/12 15:55:55;;;;;;;;;;;;;;;25.22;52.77;101140.13;10426368;28;19975;-64
2023/07/12 16:01:00;;;;;;;;;;;;;;;23.97;54.92;101137.13;10459969;28;20020;-64
2023/07/12 16:06:03;;;;;;;;;;;;;;;23.29;55.69;101136.38;10442375;28;19947;-64
2023/07/12 16:11:19;;;;;;;;;;;;;;;23.37;55.87;101133.72;10441991;28;20015;-64
2023/07/12 16:16:23;;;;;;;;;;;;;;;23.25;55.38;101128.84;10441685;28;19932;-64
2023/07/12 16:21:26;;;;;;;;;;;;;;;23.17;57.34;101135.00;10459283;28;19976;-64
2023/07/12 16:26:30;;;;;;;;;;;;;;;23.16;57.04;101139.50;10459121;28;19925;-64
2023/07/12 16:31:35;;;;;;;;;;;;;;;22.95;56.57;101139.91;10458246;28;19932;-64
2023/07/12 16:36:37;;;;;;;;;;;;;;;23.21;56.87;101140.88;10424649;28;19925;-64
2023/07/12 16:41:42;;;;;;;;;;;;;;;22.91;57.20;101140.38;10458573;28;19931;-64
2023/07/12 16:46:45;;;;;;;;;;;;;;;22.90;58.18;101136.88;10458219;28;19932;-64
2023/07/12 16:51:47;;;;;;;;;;;;;;;22.43;56.91;101140.81;10440578;28;19924;-64
2023/07/12 16:56:49;;;;;;;;;;;;;;;23.87;56.11;101131.13;10457810;28;19925;-64
2023/07/12 17:01:52;;;;;;;;;;;;;;;23.25;57.48;101136.84;10457707;28;19933;-64
2023/07/12 17:06:57;;;;;;;;;;;;;;;23.25;56.02;101136.84;10439966;28;19925;-64
2023/07/12 17:11:59;;;;;;;;;;;;;;;22.61;56.66;101148.78;10457495;28;19931;-64
2023/07/12 17:17:02;;;;;;;;;;;;;;;22.60;57.51;101135.59;10457099;28;19925;-64
2023/07/12 17:22:07;;;;;;;;;;;;;;;22.08;56.96;101142.53;10457099;28;19993;-64
2023/07/12 17:27:13;;;;;;;;;;;;;;;22.42;58.21;101156.97;10439196;28;20382;-65
2023/07/12 17:32:17;;;;;;;;;;;;;;;22.51;57.37;101150.72;10456811;28;19947;-65
2023/07/12 17:37:19;;;;;;;;;;;;;;;22.62;56.96;101154.94;10439305;28;19932;-63
2023/07/12 17:42:21;;;;;;;;;;;;;;;22.74;56.00;101142.16;10463640;28;20020;-63
2023/07/12 17:47:28;;;;;;;;;;;;;;;22.05;56.37;101147.34;10447696;28;19931;-63
2023/07/12 17:52:32;;;;;;;;;;;;;;;21.84;56.87;101137.03;10465054;28;19960;-63
2023/07/12 17:57:34;;;;;;;;;;;;;;;22.24;56.19;101136.50;10464852;28;20360;-63
2023/07/12 18:02:36;;;;;;;;;;;;;;;22.10;58.59;101141.56;10464556;28;19925;-64
2023/07/12 18:07:39;;;;;;;;;;;;;;;21.93;57.32;101129.94;10464426;28;19960;-64
2023/07/12 18:12:41;;;;;;;;;;;;;;;22.31;57.76;101146.56;10464371;28;19928;-64
2023/07/12 18:17:43;;;;;;;;;;;;;;;22.23;56.93;101147.31;10463964;28;19925;-64
2023/07/12 18:22:45;;;;;;;;;;;;;;;22.11;57.68;101157.41;10463763;28;20380;-64
2023/07/12 18:27:48;;;;;;;;;;;;;;;21.79;59.34;101160.63;10463500;28;19925;-64
2023/07/12 18:32:51;;;;;;;;;;;;;;;21.18;61.46;101178.94;10463496;28;19931;-64
2023/07/12 18:37:54;;;;;;;;;;;;;;;21.18;61.34;101173.59;10463377;28;19932;-65
2023/07/12 18:42:56;;;;;;;;;;;;;;;21.31;59.99;101168.75;10463071;28;20012;-64
2023/07/12 18:47:58;;;;;;;;;;;;;;;21.16;59.37;101178.25;10463070;28;20427;-64
2023/07/12 18:53:01;;;;;;;;;;;;;;;21.42;59.14;101173.06;10461927;28;20471;-65
2023/07/12 18:58:04;;;;;;;;;;;;;;;21.38;60.24;101174.31;10462680;28;19924;-65
2023/07/12 19:03:19;;;;;;;;;;;;;;;21.00;61.63;101184.22;10462376;28;19931;-64
2023/07/12 19:08:22;;;;;;;;;;;;;;;21.03;65.02;101188.38;10444522;28;19960;-64
2023/07/12 19:13:24;;;;;;;;;;;;;;;21.05;63.84;101179.28;10462088;28;20302;-64
2023/07/12 19:18:26;;;;;;;;;;;;;;;20.70;66.04;101182.66;10461687;28;19925;-63
2023/07/12 19:23:28;;;;;;;;;;;;;;;20.78;64.61;101182.75;10461562;28;19925;-63
2023/07/12 19:28:31;;;;;;;;;;;;;;;20.87;64.04;101184.53;10461177;28;20003;-63
2023/07/12 19:33:33;;;;;;;;;;;;;;;20.64;66.16;101196.53;10461338;28;19924;-63
2023/07/12 19:38:35;;;;;;;;;;;;;;;20.89;64.03;101198.53;10461058;28;19925;-63
2023/07/12 19:43:38;;;;;;;;;;;;;;;20.59;65.62;101197.78;10474278;22;19925;-64
2023/07/12 19:48:40;;;;;;;;;;;;;;;20.30;67.23;101211.09;10460556;28;20382;-64
2023/07/12 19:53:43;;;;;;;;;;;;;;;19.65;72.16;101213.41;10459186;28;19941;-64
2023/07/12 19:58:46;;;;;;;;;;;;;;;19.51;73.05;101227.09;10458817;28;19925;-64
2023/07/12 20:03:48;;;;;;;;;;;;;;;19.41;74.56;101232.38;10458772;28;20279;-64
2023/07/12 20:08:52;;;;;;;;;;;;;;;19.19;77.83;101228.94;10459571;28;19946;-64
2023/07/12 20:13:55;;;;;;;;;;;;;;;18.97;80.90;101226.47;10458404;28;19955;-64
2023/07/12 20:18:57;;;;;;;;;;;;;;;18.75;82.18;101239.72;10458128;28;19924;-64
2023/07/12 20:24:00;;;;;;;;;;;;;;;18.53;84.97;101245.19;10459698;28;20011;-64
2023/07/12 20:29:03;;;;;;;;;;;;;;;18.54;85.28;101249.50;10459428;28;19931;-64
2023/07/12 20:34:05;;;;;;;;;;;;;;;18.44;85.69;101243.28;10458992;28;19925;-64
2023/07/12 20:39:10;;;;;;;;;;;;;;;18.35;85.42;101250.22;10457207;28;20318;-64
2023/07/12 20:44:13;;;;;;;;;;;;;;;18.45;82.20;101245.81;10458515;28;19924;-64
2023/07/12 20:49:16;;;;;;;;;;;;;;;18.43;80.01;101249.56;10458292;28;19925;-64
2023/07/12 20:54:18;;;;;;;;;;;;;;;18.43;77.38;101250.41;10457893;28;19979;-64
2023/07/12 20:59:20;;;;;;;;;;;;;;;18.40;77.34;101247.19;10458392;28;19925;-64
2023/07/12 21:04:22;;;;;;;;;;;;;;;18.45;77.57;101250.28;10457493;28;20284;-64
2023/07/12 21:09:25;;;;;;;;;;;;;;;18.45;76.74;101252.94;10456228;28;19925;-64
2023/07/12 21:14:27;;;;;;;;;;;;;;;18.38;78.61;101256.09;10457136;28;19924;-64
2023/07/12 21:19:29;;;;;;;;;;;;;;;18.31;77.46;101270.81;10455819;28;19925;-63
2023/07/12 21:24:31;;;;;;;;;;;;;;;17.95;77.76;101275.50;10456984;28;19972;-63
2023/07/12 21:29:33;;;;;;;;;;;;;;;18.09;78.32;101269.09;10456936;28;19929;-63
2023/07/12 21:34:37;;;;;;;;;;;;;;;18.17;78.10;101282.56;10457007;28;19925;-63
2023/07/12 21:39:39;;;;;;;;;;;;;;;18.18;77.94;101286.88;10457066;28;19936;-63
2023/07/12 21:44:41;;;;;;;;;;;;;;;17.90;80.23;101284.81;10456440;28;19929;-63
2023/07/12 21:49:44;;;;;;;;;;;;;;;17.86;80.61;101288.66;10456631;28;19924;-63
2023/07/12 21:54:47;;;;;;;;;;;;;;;17.42;84.97;101292.06;10456363;28;19925;-63
2023/07/12 21:59:52;;;;;;;;;;;;;;;17.44;86.60;101289.28;10455532;28;19929;-63
2023/07/12 22:04:54;;;;;;;;;;;;;;;17.22;87.98;101293.59;10456195;28;19929;-63
2023/07/12 22:09:57;;;;;;;;;;;;;;;17.07;90.30;101287.69;10456500;28;20007;-63
2023/07/12 22:14:59;;;;;;;;;;;;;;;17.01;89.88;101285.53;10456123;28;20291;-63
2023/07/12 22:20:03;;;;;;;;;;;;;;;16.90;93.26;101293.44;10455932;28;19924;-63
2023/07/12 22:25:06;;;;;;;;;;;;;;;16.91;93.41;101284.53;10454619;28;19925;-63
2023/07/12 22:30:25;;;;;;;;;;;;;;;16.96;90.00;101300.88;10463274;28;19935;-63
2023/07/12 22:35:27;;;;;;;;;;;;;;;16.97;90.54;101301.75;10463528;28;19925;-63
2023/07/12 22:40:29;;;;;;;;;;;;;;;16.85;87.79;101301.72;10461953;28;20395;-63
2023/07/12 22:45:32;;;;;;;;;;;;;;;17.09;85.26;101306.09;10463068;28;19999;-63
2023/07/12 22:50:34;;;;;;;;;;;;;;;17.43;78.77;101301.69;10463548;28;19925;-63
2023/07/12 22:55:36;;;;;;;;;;;;;;;17.67;77.24;101306.00;10462538;28;19931;-64
2023/07/12 23:00:39;;;;;;;;;;;;;;;17.35;78.59;101309.38;10462580;28;19951;-64
2023/07/12 23:05:41;;;;;;;;;;;;;;;17.41;77.23;101302.75;10462099;28;19929;-64
2023/07/12 23:10:43;;;;;;;;;;;;;;;17.71;77.00;101303.94;10462254;28;19931;-64
2023/07/12 23:15:46;;;;;;;;;;;;;;;17.19;80.26;101308.88;10461732;28;20260;-64
2023/07/12 23:20:49;;;;;;;;;;;;;;;17.52;76.43;101297.47;10461858;28;19925;-64
2023/07/12 23:25:52;;;;;;;;;;;;;;;17.17;77.36;101298.41;10461615;28;19925;-64
2023/07/12 23:30:54;;;;;;;;;;;;;;;17.15;77.70;101302.16;10461341;28;19939;-63
2023/07/12 23:35:56;;;;;;;;;;;;;;;16.95;77.66;101295.75;10461099;28;19925;-63
2023/07/12 23:40:58;;;;;;;;;;;;;;;17.04;76.85;101287.09;10460556;28;19925;-63
2023/07/12 23:46:02;;;;;;;;;;;;;;;17.31;75.87;101301.78;10460861;28;19959;-63
2023/07/12 23:51:05;;;;;;;;;;;;;;;17.37;75.20;101290.75;10459358;28;19971;-63
2023/07/12 23:56:12;;;;;;;;;;;;;;;17.21;76.96;101302.50;10460141;28;20288;-63
